sensor_id;sensor_type;location;lat;lon;timestamp;pressure;altitude;pressure_sealevel;temperature;humidity
5952;BME280;3001;42.622;23.194;2022-09-28T00:01:39;90414.09;;;14.95;100.00
5952;BME280;3001;42.622;23.194;2022-09-28T00:04:07;90417.28;;;15.04;100.00
5952;BME280;3001;42.622;23.194;2022-09-28T00:06:34;90408.91;;;14.76;100.00
5952;BME280;3001;42.622;23.194;2022-09-28T00:09:00;90400.72;;;14.78;100.00
5952;BME280;3001;42.622;23.194;2022-09-28T00:11:28;90409.69;;;14.58;100.00
5952;BME280;3001;42.622;23.194;2022-09-28T00:13:57;90406.88;;;14.66;100.00
5952;BME280;3001;42.622;23.194;2022-09-28T00:16:26;90398.00;;;14.52;100.00
5952;BME280;3001;42.622;23.194;2022-09-28T00:18:53;90395.09;;;14.76;100.00
5952;BME280;3001;42.622;23.194;2022-09-28T00:21:23;90394.81;;;14.81;100.00
5952;BME280;3001;42.622;23.194;2022-09-28T00:23:52;90395.31;;;14.90;100.00
5952;BME280;3001;42.622;23.194;2022-09-28T00:26:32;90396.28;;;15.01;100.00
5952;BME280;3001;42.622;23.194;2022-09-28T00:29:01;90397.78;;;15.02;100.00
5952;BME280;3001;42.622;23.194;2022-09-28T00:31:29;90391.34;;;14.96;100.00
5952;BME280;3001;42.622;23.194;2022-09-28T00:33:57;90388.53;;;14.85;100.00
5952;BME280;3001;42.622;23.194;2022-09-28T00:36:26;90388.94;;;15.10;100.00
5952;BME280;3001;42.622;23.194;2022-09-28T00:38:53;90385.16;;;14.85;100.00
5952;BME280;3001;42.622;23.194;2022-09-28T00:41:21;90386.38;;;14.68;100.00
5952;BME280;3001;42.622;23.194;2022-09-28T00:43:47;90391.84;;;14.82;100.00
5952;BME280;3001;42.622;23.194;2022-09-28T00:46:16;90379.97;;;14.47;100.00
5952;BME280;3001;42.622;23.194;2022-09-28T00:48:51;90384.31;;;14.39;100.00
5952;BME280;3001;42.622;23.194;2022-09-28T00:51:20;90373.94;;;14.24;100.00
5952;BME280;3001;42.622;23.194;2022-09-28T00:53:50;90373.56;;;14.06;100.00
5952;BME280;3001;42.622;23.194;2022-09-28T00:56:19;90369.84;;;14.07;100.00
5952;BME280;3001;42.622;23.194;2022-09-28T00:58:48;90374.78;;;14.12;100.00
5952;BME280;3001;42.622;23.194;2022-09-28T01:01:17;90373.72;;;14.32;100.00
5952;BME280;3001;42.622;23.194;2022-09-28T01:03:44;90381.22;;;14.34;100.00
5952;BME280;3001;42.622;23.194;2022-09-28T01:06:16;90383.34;;;14.47;100.00
5952;BME280;3001;42.622;23.194;2022-09-28T01:08:44;90376.94;;;14.45;100.00
5952;BME280;3001;42.622;23.194;2022-09-28T01:11:13;90383.16;;;14.37;100.00
5952;BME280;3001;42.622;23.194;2022-09-28T01:13:40;90383.28;;;14.63;100.00
5952;BME280;3001;42.622;23.194;2022-09-28T01:16:13;90389.50;;;14.77;100.00
5952;BME280;3001;42.622;23.194;2022-09-28T01:18:51;90396.31;;;14.82;100.00
5952;BME280;3001;42.622;23.194;2022-09-28T01:21:22;90387.09;;;14.69;100.00
5952;BME280;3001;42.622;23.194;2022-09-28T01:24:13;90388.97;;;14.68;100.00
5952;BME280;3001;42.622;23.194;2022-09-28T01:26:54;90387.78;;;14.85;100.00
5952;BME280;3001;42.622;23.194;2022-09-28T01:29:31;90387.41;;;14.64;100.00
5952;BME280;3001;42.622;23.194;2022-09-28T01:32:09;90380.75;;;14.47;100.00
5952;BME280;3001;42.622;23.194;2022-09-28T01:34:42;90377.09;;;14.52;100.00
5952;BME280;3001;42.622;23.194;2022-09-28T01:37:14;90381.56;;;14.51;100.00
5952;BME280;3001;42.622;23.194;2022-09-28T01:39:44;90393.31;;;14.61;100.00
5952;BME280;3001;42.622;23.194;2022-09-28T01:42:17;90389.47;;;14.74;100.00
5952;BME280;3001;42.622;23.194;2022-09-28T01:44:48;90388.00;;;14.76;100.00
5952;BME280;3001;42.622;23.194;2022-09-28T01:47:20;90400.88;;;15.07;100.00
5952;BME280;3001;42.622;23.194;2022-09-28T01:49:53;90401.47;;;15.20;100.00
5952;BME280;3001;42.622;23.194;2022-09-28T01:52:24;90391.22;;;15.30;100.00
5952;BME280;3001;42.622;23.194;2022-09-28T01:54:56;90398.75;;;15.13;100.00
5952;BME280;3001;42.622;23.194;2022-09-28T01:57:30;90400.25;;;15.14;100.00
5952;BME280;3001;42.622;23.194;2022-09-28T02:00:02;90403.72;;;15.21;100.00
5952;BME280;3001;42.622;23.194;2022-09-28T02:02:32;90412.75;;;15.01;100.00
5952;BME280;3001;42.622;23.194;2022-09-28T02:05:04;90405.00;;;15.08;100.00
5952;BME280;3001;42.622;23.194;2022-09-28T02:07:37;90405.81;;;15.12;100.00
5952;BME280;3001;42.622;23.194;2022-09-28T02:10:07;90397.63;;;14.72;100.00
5952;BME280;3001;42.622;23.194;2022-09-28T02:12:41;90400.94;;;15.11;100.00
5952;BME280;3001;42.622;23.194;2022-09-28T02:15:13;90394.81;;;14.81;100.00
5952;BME280;3001;42.622;23.194;2022-09-28T02:17:42;90390.25;;;14.97;100.00
5952;BME280;3001;42.622;23.194;2022-09-28T02:20:09;90403.97;;;15.13;100.00
5952;BME280;3001;42.622;23.194;2022-09-28T02:22:38;90406.59;;;15.13;100.00
5952;BME280;3001;42.622;23.194;2022-09-28T02:25:09;90409.84;;;15.29;100.00
5952;BME280;3001;42.622;23.194;2022-09-28T02:27:41;90406.78;;;15.23;100.00
5952;BME280;3001;42.622;23.194;2022-09-28T02:30:10;90404.91;;;15.24;100.00
5952;BME280;3001;42.622;23.194;2022-09-28T02:32:40;90402.34;;;15.27;100.00
5952;BME280;3001;42.622;23.194;2022-09-28T02:35:08;90391.88;;;15.27;100.00
5952;BME280;3001;42.622;23.194;2022-09-28T02:37:37;90385.75;;;14.97;100.00
5952;BME280;3001;42.622;23.194;2022-09-28T02:40:12;90393.78;;;15.08;100.00
5952;BME280;3001;42.622;23.194;2022-09-28T02:42:45;90402.34;;;15.27;100.00
5952;BME280;3001;42.622;23.194;2022-09-28T02:45:29;90390.38;;;15.26;100.00
5952;BME280;3001;42.622;23.194;2022-09-28T02:48:13;90399.47;;;15.32;100.00
5952;BME280;3001;42.622;23.194;2022-09-28T02:50:50;90391.81;;;15.24;100.00
5952;BME280;3001;42.622;23.194;2022-09-28T02:53:35;90400.13;;;15.07;100.00
5952;BME280;3001;42.622;23.194;2022-09-28T02:56:19;90398.09;;;14.97;100.00
5952;BME280;3001;42.622;23.194;2022-09-28T02:58:57;90394.41;;;14.79;100.00
5952;BME280;3001;42.622;23.194;2022-09-28T03:01:30;90390.09;;;14.67;100.00
5952;BME280;3001;42.622;23.194;2022-09-28T03:04:05;90389.66;;;14.84;100.00
5952;BME280;3001;42.622;23.194;2022-09-28T03:06:39;90395.69;;;14.88;100.00
5952;BME280;3001;42.622;23.194;2022-09-28T03:09:12;90399.91;;;14.74;100.00
5952;BME280;3001;42.622;23.194;2022-09-28T03:11:45;90396.31;;;14.82;100.00
5952;BME280;3001;42.622;23.194;2022-09-28T03:14:14;90401.28;;;14.68;100.00
5952;BME280;3001;42.622;23.194;2022-09-28T03:16:42;90410.34;;;14.93;100.00
5952;BME280;3001;42.622;23.194;2022-09-28T03:19:10;90411.91;;;14.97;100.00
5952;BME280;3001;42.622;23.194;2022-09-28T03:21:36;90411.53;;;15.18;100.00
5952;BME280;3001;42.622;23.194;2022-09-28T03:24:04;90414.06;;;15.14;100.00
5952;BME280;3001;42.622;23.194;2022-09-28T03:26:31;90415.59;;;15.15;100.00
5952;BME280;3001;42.622;23.194;2022-09-28T03:28:57;90419.28;;;15.33;100.00
5952;BME280;3001;42.622;23.194;2022-09-28T03:31:26;90417.06;;;15.58;100.00
5952;BME280;3001;42.622;23.194;2022-09-28T03:33:52;90422.47;;;15.68;100.00
5952;BME280;3001;42.622;23.194;2022-09-28T03:36:20;90422.84;;;15.44;100.00
5952;BME280;3001;42.622;23.194;2022-09-28T03:38:46;90420.22;;;15.44;100.00
5952;BME280;3001;42.622;23.194;2022-09-28T03:41:13;90418.22;;;15.60;100.00
5952;BME280;3001;42.622;23.194;2022-09-28T03:43:40;90420.19;;;15.66;100.00
5952;BME280;3001;42.622;23.194;2022-09-28T03:46:06;90425.03;;;15.64;100.00
5952;BME280;3001;42.622;23.194;2022-09-28T03:48:35;90417.69;;;15.73;100.00
5952;BME280;3001;42.622;23.194;2022-09-28T03:51:03;90427.38;;;15.95;100.00
5952;BME280;3001;42.622;23.194;2022-09-28T03:53:32;90430.94;;;16.10;100.00
5952;BME280;3001;42.622;23.194;2022-09-28T03:56:01;90433.00;;;16.23;100.00
5952;BME280;3001;42.622;23.194;2022-09-28T03:58:29;90438.56;;;16.22;100.00
5952;BME280;3001;42.622;23.194;2022-09-28T04:01:00;90435.22;;;16.21;100.00
5952;BME280;3001;42.622;23.194;2022-09-28T04:03:27;90432.69;;;16.02;100.00
5952;BME280;3001;42.622;23.194;2022-09-28T04:05:56;90436.47;;;15.79;100.00
5952;BME280;3001;42.622;23.194;2022-09-28T04:08:22;90433.50;;;16.06;100.00
5952;BME280;3001;42.622;23.194;2022-09-28T04:10:49;90423.09;;;16.10;100.00
5952;BME280;3001;42.622;23.194;2022-09-28T04:13:16;90419.03;;;16.16;100.00
5952;BME280;3001;42.622;23.194;2022-09-28T04:15:50;90431.53;;;16.26;100.00
5952;BME280;3001;42.622;23.194;2022-09-28T04:18:17;90431.09;;;15.94;100.00
5952;BME280;3001;42.622;23.194;2022-09-28T04:20:44;90428.72;;;16.12;100.00
5952;BME280;3001;42.622;23.194;2022-09-28T04:23:13;90436.31;;;16.20;100.00
5952;BME280;3001;42.622;23.194;2022-09-28T04:25:40;90441.50;;;16.17;100.00
5952;BME280;3001;42.622;23.194;2022-09-28T04:28:10;90441.38;;;16.06;100.00
5952;BME280;3001;42.622;23.194;2022-09-28T04:30:53;90451.22;;;15.90;100.00
5952;BME280;3001;42.622;23.194;2022-09-28T04:33:19;90435.72;;;15.78;100.00
5952;BME280;3001;42.622;23.194;2022-09-28T04:35:46;90438.00;;;16.06;100.00
5952;BME280;3001;42.622;23.194;2022-09-28T04:38:14;90440.63;;;16.06;100.00
5952;BME280;3001;42.622;23.194;2022-09-28T04:40:41;90441.47;;;16.13;100.00
5952;BME280;3001;42.622;23.194;2022-09-28T04:43:07;90430.28;;;16.16;100.00
5952;BME280;3001;42.622;23.194;2022-09-28T04:45:34;90419.13;;;16.23;100.00
5952;BME280;3001;42.622;23.194;2022-09-28T04:48:01;90420.00;;;16.04;100.00
5952;BME280;3001;42.622;23.194;2022-09-28T04:50:28;90421.56;;;16.09;100.00
5952;BME280;3001;42.622;23.194;2022-09-28T04:52:54;90425.44;;;16.18;100.00
5952;BME280;3001;42.622;23.194;2022-09-28T04:55:22;90426.16;;;16.15;100.00
5952;BME280;3001;42.622;23.194;2022-09-28T04:57:49;90445.75;;;16.25;100.00
5952;BME280;3001;42.622;23.194;2022-09-28T05:00:16;90442.63;;;16.16;100.00
5952;BME280;3001;42.622;23.194;2022-09-28T05:02:42;90442.53;;;16.09;100.00
5952;BME280;3001;42.622;23.194;2022-09-28T05:05:09;90447.94;;;15.93;100.00
5952;BME280;3001;42.622;23.194;2022-09-28T05:07:36;90451.59;;;15.89;100.00
5952;BME280;3001;42.622;23.194;2022-09-28T05:10:04;90443.50;;;15.97;100.00
5952;BME280;3001;42.622;23.194;2022-09-28T05:12:32;90445.50;;;15.81;100.00
5952;BME280;3001;42.622;23.194;2022-09-28T05:14:58;90446.38;;;15.66;100.00
5952;BME280;3001;42.622;23.194;2022-09-28T05:17:25;90448.81;;;15.78;100.00
5952;BME280;3001;42.622;23.194;2022-09-28T05:19:52;90452.25;;;15.82;100.00
5952;BME280;3001;42.622;23.194;2022-09-28T05:22:19;90454.75;;;15.75;100.00
5952;BME280;3001;42.622;23.194;2022-09-28T05:24:46;90448.44;;;15.80;100.00
5952;BME280;3001;42.622;23.194;2022-09-28T05:27:12;90445.63;;;15.66;100.00
5952;BME280;3001;42.622;23.194;2022-09-28T05:29:40;90455.53;;;15.54;100.00
5952;BME280;3001;42.622;23.194;2022-09-28T05:32:07;90456.59;;;15.75;100.00
5952;BME280;3001;42.622;23.194;2022-09-28T05:34:34;90460.75;;;15.54;100.00
5952;BME280;3001;42.622;23.194;2022-09-28T05:37:00;90466.53;;;15.88;100.00
5952;BME280;3001;42.622;23.194;2022-09-28T05:39:27;90468.56;;;15.72;100.00
5952;BME280;3001;42.622;23.194;2022-09-28T05:41:54;90461.09;;;15.74;100.00
5952;BME280;3001;42.622;23.194;2022-09-28T05:44:22;90459.13;;;15.68;100.00
5952;BME280;3001;42.622;23.194;2022-09-28T05:46:51;90467.44;;;15.73;100.00
5952;BME280;3001;42.622;23.194;2022-09-28T05:49:18;90461.19;;;15.81;100.00
5952;BME280;3001;42.622;23.194;2022-09-28T05:51:44;90469.22;;;15.92;100.00
5952;BME280;3001;42.622;23.194;2022-09-28T05:54:11;90477.47;;;16.20;100.00
5952;BME280;3001;42.622;23.194;2022-09-28T05:56:38;90472.16;;;16.39;100.00
5952;BME280;3001;42.622;23.194;2022-09-28T05:59:04;90464.44;;;15.97;100.00
5952;BME280;3001;42.622;23.194;2022-09-28T06:01:31;90471.66;;;16.04;100.00
5952;BME280;3001;42.622;23.194;2022-09-28T06:04:00;90460.25;;;16.19;100.00
5952;BME280;3001;42.622;23.194;2022-09-28T06:06:26;90472.78;;;16.32;100.00
5952;BME280;3001;42.622;23.194;2022-09-28T06:08:53;90465.63;;;16.52;100.00
5952;BME280;3001;42.622;23.194;2022-09-28T06:11:20;90476.50;;;16.54;100.00
5952;BME280;3001;42.622;23.194;2022-09-28T06:13:52;90472.06;;;16.32;100.00
5952;BME280;3001;42.622;23.194;2022-09-28T06:16:18;90473.06;;;16.50;100.00
5952;BME280;3001;42.622;23.194;2022-09-28T06:18:45;90473.47;;;16.81;99.76
5952;BME280;3001;42.622;23.194;2022-09-28T06:21:13;90474.28;;;16.85;97.48
5952;BME280;3001;42.622;23.194;2022-09-28T06:23:40;90484.97;;;17.03;96.92
5952;BME280;3001;42.622;23.194;2022-09-28T06:26:06;90492.25;;;17.16;95.60
5952;BME280;3001;42.622;23.194;2022-09-28T06:28:33;90495.41;;;17.32;95.79
5952;BME280;3001;42.622;23.194;2022-09-28T06:31:00;90497.19;;;17.21;95.08
5952;BME280;3001;42.622;23.194;2022-09-28T06:33:27;90500.41;;;17.77;93.83
5952;BME280;3001;42.622;23.194;2022-09-28T06:35:54;90490.09;;;17.58;93.89
5952;BME280;3001;42.622;23.194;2022-09-28T06:38:22;90506.03;;;17.39;93.62
5952;BME280;3001;42.622;23.194;2022-09-28T06:40:49;90500.56;;;17.54;93.72
5952;BME280;3001;42.622;23.194;2022-09-28T06:43:15;90492.38;;;17.63;94.65
5952;BME280;3001;42.622;23.194;2022-09-28T06:45:49;90493.84;;;17.57;94.83
5952;BME280;3001;42.622;23.194;2022-09-28T06:48:15;90495.00;;;17.63;93.76
5952;BME280;3001;42.622;23.194;2022-09-28T06:50:42;90507.56;;;17.83;92.43
5952;BME280;3001;42.622;23.194;2022-09-28T06:53:11;90507.53;;;17.76;93.16
5952;BME280;3001;42.622;23.194;2022-09-28T06:55:40;90505.13;;;18.04;92.55
5952;BME280;3001;42.622;23.194;2022-09-28T06:58:09;90502.50;;;17.61;90.44
5952;BME280;3001;42.622;23.194;2022-09-28T07:00:37;90496.28;;;17.79;92.17
5952;BME280;3001;42.622;23.194;2022-09-28T07:03:07;90499.28;;;17.78;92.19
5952;BME280;3001;42.622;23.194;2022-09-28T07:05:35;90501.56;;;17.83;94.29
5952;BME280;3001;42.622;23.194;2022-09-28T07:08:02;90500.16;;;17.92;88.40
5952;BME280;3001;42.622;23.194;2022-09-28T07:10:47;90503.91;;;17.95;93.16
5952;BME280;3001;42.622;23.194;2022-09-28T07:13:15;90504.00;;;18.02;93.05
5952;BME280;3001;42.622;23.194;2022-09-28T07:15:42;90509.25;;;18.02;89.02
5952;BME280;3001;42.622;23.194;2022-09-28T07:18:10;90507.34;;;17.99;90.17
5952;BME280;3001;42.622;23.194;2022-09-28T07:20:59;90517.31;;;18.23;88.43
5952;BME280;3001;42.622;23.194;2022-09-28T07:23:27;90516.91;;;18.21;88.02
5952;BME280;3001;42.622;23.194;2022-09-28T07:25:56;90514.25;;;18.17;91.07
5952;BME280;3001;42.622;23.194;2022-09-28T07:28:23;90517.25;;;18.19;90.94
5952;BME280;3001;42.622;23.194;2022-09-28T07:30:50;90502.78;;;18.39;89.10
5952;BME280;3001;42.622;23.194;2022-09-28T07:33:16;90515.03;;;18.72;88.56
5952;BME280;3001;42.622;23.194;2022-09-28T07:35:49;90519.88;;;18.63;87.44
5952;BME280;3001;42.622;23.194;2022-09-28T07:38:16;90520.31;;;18.79;88.76
5952;BME280;3001;42.622;23.194;2022-09-28T07:40:43;90515.94;;;19.07;87.86
5952;BME280;3001;42.622;23.194;2022-09-28T07:43:29;90515.19;;;19.00;87.83
5952;BME280;3001;42.622;23.194;2022-09-28T07:45:55;90519.66;;;18.96;86.25
5952;BME280;3001;42.622;23.194;2022-09-28T07:48:23;90527.34;;;19.25;83.46
5952;BME280;3001;42.622;23.194;2022-09-28T07:50:51;90524.00;;;19.38;84.80
5952;BME280;3001;42.622;23.194;2022-09-28T07:53:20;90533.03;;;19.37;87.25
5952;BME280;3001;42.622;23.194;2022-09-28T07:55:52;90533.09;;;19.58;84.89
5952;BME280;3001;42.622;23.194;2022-09-28T07:58:19;90538.00;;;19.60;84.73
5952;BME280;3001;42.622;23.194;2022-09-28T08:00:49;90543.69;;;19.76;83.61
5952;BME280;3001;42.622;23.194;2022-09-28T08:03:17;90526.75;;;19.73;83.03
5952;BME280;3001;42.622;23.194;2022-09-28T08:05:44;90529.09;;;20.03;82.48
5952;BME280;3001;42.622;23.194;2022-09-28T08:08:11;90541.88;;;19.94;82.22
5952;BME280;3001;42.622;23.194;2022-09-28T08:10:41;90532.41;;;19.79;81.61
5952;BME280;3001;42.622;23.194;2022-09-28T08:13:07;90540.34;;;19.96;82.42
5952;BME280;3001;42.622;23.194;2022-09-28T08:15:34;90538.84;;;19.95;83.11
5952;BME280;3001;42.622;23.194;2022-09-28T08:18:03;90543.41;;;20.19;81.92
5952;BME280;3001;42.622;23.194;2022-09-28T08:20:30;90550.19;;;20.31;82.22
5952;BME280;3001;42.622;23.194;2022-09-28T08:23:14;90554.00;;;20.26;81.78
5952;BME280;3001;42.622;23.194;2022-09-28T08:25:45;90550.22;;;20.48;84.94
5952;BME280;3001;42.622;23.194;2022-09-28T08:28:13;90554.34;;;20.77;78.84
5952;BME280;3001;42.622;23.194;2022-09-28T08:30:40;90547.19;;;20.60;78.29
5952;BME280;3001;42.622;23.194;2022-09-28T08:33:08;90559.25;;;20.54;80.32
5952;BME280;3001;42.622;23.194;2022-09-28T08:35:35;90567.19;;;20.58;77.69
5952;BME280;3001;42.622;23.194;2022-09-28T08:38:03;90557.00;;;20.63;79.59
5952;BME280;3001;42.622;23.194;2022-09-28T08:40:34;90560.75;;;20.97;78.26
5952;BME280;3001;42.622;23.194;2022-09-28T08:45:49;90562.25;;;21.02;77.85
5952;BME280;3001;42.622;23.194;2022-09-28T08:48:20;90559.25;;;21.00;77.78
5952;BME280;3001;42.622;23.194;2022-09-28T08:51:12;90557.72;;;21.06;80.57
5952;BME280;3001;42.622;23.194;2022-09-28T08:53:43;90549.41;;;21.17;78.55
5952;BME280;3001;42.622;23.194;2022-09-28T08:56:17;90550.53;;;21.13;77.65
5952;BME280;3001;42.622;23.194;2022-09-28T08:58:51;90564.75;;;21.50;77.37
5952;BME280;3001;42.622;23.194;2022-09-28T09:01:22;90559.47;;;21.54;75.10
5952;BME280;3001;42.622;23.194;2022-09-28T09:03:53;90563.19;;;21.70;75.92
5952;BME280;3001;42.622;23.194;2022-09-28T09:06:24;90557.81;;;21.91;76.05
5952;BME280;3001;42.622;23.194;2022-09-28T09:09:00;90556.81;;;21.54;77.88
5952;BME280;3001;42.622;23.194;2022-09-28T09:11:46;90549.19;;;21.80;75.82
5952;BME280;3001;42.622;23.194;2022-09-28T09:14:41;90551.91;;;21.56;78.06
5952;BME280;3001;42.622;23.194;2022-09-28T09:17:17;90557.84;;;21.84;75.76
5952;BME280;3001;42.622;23.194;2022-09-28T09:19:52;90547.75;;;21.65;78.04
5952;BME280;3001;42.622;23.194;2022-09-28T09:22:30;90538.91;;;21.96;77.04
5952;BME280;3001;42.622;23.194;2022-09-28T09:25:08;90540.66;;;22.20;75.43
5952;BME280;3001;42.622;23.194;2022-09-28T09:27:50;90542.22;;;22.11;76.67
5952;BME280;3001;42.622;23.194;2022-09-28T09:30:23;90541.63;;;22.47;74.12
5952;BME280;3001;42.622;23.194;2022-09-28T09:33:03;90544.88;;;22.65;74.81
5952;BME280;3001;42.622;23.194;2022-09-28T09:35:48;90547.69;;;22.41;72.44
5952;BME280;3001;42.622;23.194;2022-09-28T09:38:38;90556.78;;;22.40;71.63
5952;BME280;3001;42.622;23.194;2022-09-28T09:41:15;90540.38;;;22.59;72.28
5952;BME280;3001;42.622;23.194;2022-09-28T09:44:01;90543.47;;;22.54;72.04
5952;BME280;3001;42.622;23.194;2022-09-28T09:46:34;90547.25;;;22.53;70.42
5952;BME280;3001;42.622;23.194;2022-09-28T09:49:06;90535.06;;;22.62;75.62
5952;BME280;3001;42.622;23.194;2022-09-28T09:51:40;90540.41;;;22.55;71.08
5952;BME280;3001;42.622;23.194;2022-09-28T09:54:17;90548.31;;;22.59;70.52
5952;BME280;3001;42.622;23.194;2022-09-28T09:56:50;90550.22;;;23.02;69.67
5952;BME280;3001;42.622;23.194;2022-09-28T09:59:22;90555.84;;;23.11;68.94
5952;BME280;3001;42.622;23.194;2022-09-28T10:01:51;90563.34;;;23.19;67.11
5952;BME280;3001;42.622;23.194;2022-09-28T10:04:22;90557.31;;;23.52;66.98
5952;BME280;3001;42.622;23.194;2022-09-28T10:06:56;90561.69;;;23.32;68.13
5952;BME280;3001;42.622;23.194;2022-09-28T10:09:27;90554.16;;;23.27;69.77
5952;BME280;3001;42.622;23.194;2022-09-28T10:11:55;90551.72;;;23.43;65.64
5952;BME280;3001;42.622;23.194;2022-09-28T10:14:23;90552.28;;;23.61;63.67
5952;BME280;3001;42.622;23.194;2022-09-28T10:16:51;90542.94;;;23.83;64.25
5952;BME280;3001;42.622;23.194;2022-09-28T10:19:20;90535.00;;;23.46;63.83
5952;BME280;3001;42.622;23.194;2022-09-28T10:21:52;90541.06;;;23.47;63.87
5952;BME280;3001;42.622;23.194;2022-09-28T10:24:27;90532.78;;;23.45;62.76
5952;BME280;3001;42.622;23.194;2022-09-28T10:26:59;90529.41;;;23.41;62.72
5952;BME280;3001;42.622;23.194;2022-09-28T10:29:36;90528.53;;;23.51;63.90
5952;BME280;3001;42.622;23.194;2022-09-28T10:32:17;90535.28;;;23.59;63.85
5952;BME280;3001;42.622;23.194;2022-09-28T10:34:44;90536.81;;;23.56;65.29
5952;BME280;3001;42.622;23.194;2022-09-28T10:37:12;90526.06;;;23.67;63.58
5952;BME280;3001;42.622;23.194;2022-09-28T10:39:44;90524.47;;;23.73;61.90
5952;BME280;3001;42.622;23.194;2022-09-28T10:42:18;90527.53;;;24.01;62.12
5952;BME280;3001;42.622;23.194;2022-09-28T10:44:54;90518.13;;;24.23;61.92
5952;BME280;3001;42.622;23.194;2022-09-28T10:47:23;90529.72;;;24.36;62.30
5952;BME280;3001;42.622;23.194;2022-09-28T10:49:52;90528.44;;;24.44;61.05
5952;BME280;3001;42.622;23.194;2022-09-28T10:52:35;90527.22;;;24.52;59.52
5952;BME280;3001;42.622;23.194;2022-09-28T10:55:23;90523.88;;;24.71;60.50
5952;BME280;3001;42.622;23.194;2022-09-28T10:57:50;90516.63;;;24.49;62.00
5952;BME280;3001;42.622;23.194;2022-09-28T11:00:33;90517.94;;;24.64;61.36
5952;BME280;3001;42.622;23.194;2022-09-28T11:03:00;90511.66;;;24.54;60.47
5952;BME280;3001;42.622;23.194;2022-09-28T11:05:28;90510.59;;;24.71;60.45
5952;BME280;3001;42.622;23.194;2022-09-28T11:07:58;90517.94;;;24.86;59.97
5952;BME280;3001;42.622;23.194;2022-09-28T11:10:28;90509.50;;;24.69;60.38
5952;BME280;3001;42.622;23.194;2022-09-28T11:12:56;90509.41;;;24.49;60.12
5952;BME280;3001;42.622;23.194;2022-09-28T11:15:25;90507.84;;;24.78;59.52
5952;BME280;3001;42.622;23.194;2022-09-28T11:17:53;90494.66;;;24.71;61.71
5952;BME280;3001;42.622;23.194;2022-09-28T11:20:32;90497.53;;;24.80;61.46
5952;BME280;3001;42.622;23.194;2022-09-28T11:23:17;90495.84;;;25.12;59.29
5952;BME280;3001;42.622;23.194;2022-09-28T11:25:55;90496.03;;;25.02;59.18
5952;BME280;3001;42.622;23.194;2022-09-28T11:28:30;90499.09;;;25.23;60.32
5952;BME280;3001;42.622;23.194;2022-09-28T11:30:58;90493.22;;;25.09;59.39
5952;BME280;3001;42.622;23.194;2022-09-28T11:33:30;90503.34;;;25.17;59.22
5952;BME280;3001;42.622;23.194;2022-09-28T11:36:06;90481.84;;;25.31;57.10
5952;BME280;3001;42.622;23.194;2022-09-28T11:38:39;90497.00;;;25.54;56.29
5952;BME280;3001;42.622;23.194;2022-09-28T11:41:18;90501.91;;;25.36;55.07
5952;BME280;3001;42.622;23.194;2022-09-28T11:44:17;90506.94;;;25.07;54.71
5952;BME280;3001;42.622;23.194;2022-09-28T11:46:58;90495.19;;;24.63;57.05
5952;BME280;3001;42.622;23.194;2022-09-28T11:49:32;90492.41;;;24.20;60.05
5952;BME280;3001;42.622;23.194;2022-09-28T11:52:05;90492.56;;;24.10;59.49
5952;BME280;3001;42.622;23.194;2022-09-28T11:54:41;90486.13;;;24.07;58.95
5952;BME280;3001;42.622;23.194;2022-09-28T11:57:14;90480.84;;;23.77;60.62
5952;BME280;3001;42.622;23.194;2022-09-28T11:59:51;90477.66;;;23.59;61.79
5952;BME280;3001;42.622;23.194;2022-09-28T12:02:24;90470.84;;;23.62;61.56
5952;BME280;3001;42.622;23.194;2022-09-28T12:04:53;90474.75;;;23.80;61.52
5952;BME280;3001;42.622;23.194;2022-09-28T12:07:24;90475.94;;;23.76;59.48
5952;BME280;3001;42.622;23.194;2022-09-28T12:09:57;90475.94;;;23.76;59.78
5952;BME280;3001;42.622;23.194;2022-09-28T12:12:31;90470.94;;;23.81;60.65
5952;BME280;3001;42.622;23.194;2022-09-28T12:15:03;90469.44;;;23.84;62.33
5952;BME280;3001;42.622;23.194;2022-09-28T12:17:35;90467.88;;;23.86;63.00
5952;BME280;3001;42.622;23.194;2022-09-28T12:20:10;90468.28;;;23.81;62.17
5952;BME280;3001;42.622;23.194;2022-09-28T12:22:43;90460.66;;;23.87;59.14
5952;BME280;3001;42.622;23.194;2022-09-28T12:25:16;90463.31;;;23.87;60.01
5952;BME280;3001;42.622;23.194;2022-09-28T12:27:48;90468.22;;;23.88;60.21
5952;BME280;3001;42.622;23.194;2022-09-28T12:30:17;90467.59;;;23.77;60.10
5952;BME280;3001;42.622;23.194;2022-09-28T12:32:48;90462.66;;;23.49;60.38
5952;BME280;3001;42.622;23.194;2022-09-28T12:35:24;90471.66;;;23.55;61.51
5952;BME280;3001;42.622;23.194;2022-09-28T12:38:14;90464.03;;;23.27;59.75
5952;BME280;3001;42.622;23.194;2022-09-28T12:40:51;90466.06;;;23.16;60.08
5952;BME280;3001;42.622;23.194;2022-09-28T12:43:46;90462.47;;;22.96;59.78
5952;BME280;3001;42.622;23.194;2022-09-28T12:46:28;90473.69;;;23.07;60.06
5952;BME280;3001;42.622;23.194;2022-09-28T12:49:21;90465.72;;;23.14;60.28
5952;BME280;3001;42.622;23.194;2022-09-28T12:51:51;90471.69;;;23.22;59.72
5952;BME280;3001;42.622;23.194;2022-09-28T12:57:36;90468.38;;;22.74;61.69
5952;BME280;3001;42.622;23.194;2022-09-28T13:00:07;90461.66;;;22.66;61.13
5952;BME280;3001;42.622;23.194;2022-09-28T13:06:07;90471.66;;;22.48;61.75
5952;BME280;3001;42.622;23.194;2022-09-28T13:08:47;90467.50;;;22.47;61.11
5952;BME280;3001;42.622;23.194;2022-09-28T13:11:23;90460.25;;;22.55;63.13
5952;BME280;3001;42.622;23.194;2022-09-28T13:14:07;90458.94;;;22.73;62.03
5952;BME280;3001;42.622;23.194;2022-09-28T13:16:41;90468.94;;;22.95;62.52
5952;BME280;3001;42.622;23.194;2022-09-28T13:19:15;90476.53;;;22.93;61.64
5952;BME280;3001;42.622;23.194;2022-09-28T13:21:53;90469.78;;;23.22;60.41
5952;BME280;3001;42.622;23.194;2022-09-28T13:24:26;90464.16;;;23.17;61.22
5952;BME280;3001;42.622;23.194;2022-09-28T13:26:55;90470.06;;;23.31;61.53
5952;BME280;3001;42.622;23.194;2022-09-28T13:29:26;90456.69;;;23.08;61.00
5952;BME280;3001;42.622;23.194;2022-09-28T13:31:55;90471.81;;;23.08;59.25
5952;BME280;3001;42.622;23.194;2022-09-28T13:34:24;90467.06;;;22.92;60.93
5952;BME280;3001;42.622;23.194;2022-09-28T13:37:18;90470.09;;;22.91;60.66